sensor_id;sensor_type;location;lat;lon;timestamp;pressure;altitude;pressure_sealevel;temperature;humidity
16255;BME280;8235;52.198;9.904;2023-01-31T00:01:21;101144.06;;;3.99;83.52
16255;BME280;8235;52.198;9.904;2023-01-31T00:03:52;101130.97;;;3.96;83.39
16255;BME280;8235;52.198;9.904;2023-01-31T00:06:24;101137.16;;;3.95;83.34
16255;BME280;8235;52.198;9.904;2023-01-31T00:08:52;101138.19;;;3.91;82.97
16255;BME280;8235;52.198;9.904;2023-01-31T00:11:20;101147.03;;;3.89;82.91
16255;BME280;8235;52.198;9.904;2023-01-31T00:13:48;101146.25;;;3.85;83.51
16255;BME280;8235;52.198;9.904;2023-01-31T00:16:15;101156.00;;;3.81;83.71
16255;BME280;8235;52.198;9.904;2023-01-31T00:18:43;101156.09;;;3.77;84.18
16255;BME280;8235;52.198;9.904;2023-01-31T00:21:11;101156.25;;;3.72;84.49
16255;BME280;8235;52.198;9.904;2023-01-31T00:23:40;101158.97;;;3.69;85.04
16255;BME280;8235;52.198;9.904;2023-01-31T00:26:12;101160.75;;;3.69;85.60
16255;BME280;8235;52.198;9.904;2023-01-31T00:28:42;101163.41;;;3.67;85.77
16255;BME280;8235;52.198;9.904;2023-01-31T00:31:10;101177.50;;;3.66;85.66
16255;BME280;8235;52.198;9.904;2023-01-31T00:33:38;101176.66;;;3.64;85.80
16255;BME280;8235;52.198;9.904;2023-01-31T00:36:06;101180.16;;;3.65;86.54
16255;BME280;8235;52.198;9.904;2023-01-31T00:38:33;101172.22;;;3.66;85.72
16255;BME280;8235;52.198;9.904;2023-01-31T00:41:02;101166.09;;;3.66;86.45
16255;BME280;8235;52.198;9.904;2023-01-31T00:43:29;101177.50;;;3.66;86.13
16255;BME280;8235;52.198;9.904;2023-01-31T00:45:56;101178.34;;;3.67;85.91
16255;BME280;8235;52.198;9.904;2023-01-31T00:48:23;101191.53;;;3.67;87.16
16255;BME280;8235;52.198;9.904;2023-01-31T00:50:49;101187.09;;;3.69;87.39
16255;BME280;8235;52.198;9.904;2023-01-31T00:53:16;101180.00;;;3.71;87.27
16255;BME280;8235;52.198;9.904;2023-01-31T00:55:47;101183.47;;;3.73;87.08
16255;BME280;8235;52.198;9.904;2023-01-31T00:58:16;101190.50;;;3.72;86.67
16255;BME280;8235;52.198;9.904;2023-01-31T01:00:42;101194.88;;;3.73;87.12
16255;BME280;8235;52.198;9.904;2023-01-31T01:03:09;101205.41;;;3.73;87.08
16255;BME280;8235;52.198;9.904;2023-01-31T01:05:35;101208.88;;;3.75;86.83
16255;BME280;8235;52.198;9.904;2023-01-31T01:08:02;101199.25;;;3.74;87.98
16255;BME280;8235;52.198;9.904;2023-01-31T01:10:29;101204.47;;;3.76;87.93
16255;BME280;8235;52.198;9.904;2023-01-31T01:12:55;101202.75;;;3.75;87.53
16255;BME280;8235;52.198;9.904;2023-01-31T01:15:23;101209.66;;;3.77;87.63
16255;BME280;8235;52.198;9.904;2023-01-31T01:17:49;101209.66;;;3.77;88.11
16255;BME280;8235;52.198;9.904;2023-01-31T01:20:16;101201.69;;;3.80;88.48
16255;BME280;8235;52.198;9.904;2023-01-31T01:22:44;101220.09;;;3.82;88.88
16255;BME280;8235;52.198;9.904;2023-01-31T01:25:10;101222.75;;;3.80;89.11
16255;BME280;8235;52.198;9.904;2023-01-31T01:27:37;101222.75;;;3.80;89.37
16255;BME280;8235;52.198;9.904;2023-01-31T01:30:04;101242.06;;;3.81;89.92
16255;BME280;8235;52.198;9.904;2023-01-31T01:32:33;101231.53;;;3.81;89.30
16255;BME280;8235;52.198;9.904;2023-01-31T01:34:59;101241.16;;;3.82;89.99
16255;BME280;8235;52.198;9.904;2023-01-31T01:37:26;101237.63;;;3.83;90.27
16255;BME280;8235;52.198;9.904;2023-01-31T01:39:53;101242.97;;;3.80;90.32
16255;BME280;8235;52.198;9.904;2023-01-31T01:42:21;101247.34;;;3.81;90.41
16255;BME280;8235;52.198;9.904;2023-01-31T01:44:50;101234.25;;;3.78;90.86
16255;BME280;8235;52.198;9.904;2023-01-31T01:47:22;101245.69;;;3.77;90.46
16255;BME280;8235;52.198;9.904;2023-01-31T01:49:56;101252.84;;;3.73;90.65
16255;BME280;8235;52.198;9.904;2023-01-31T01:52:25;101250.22;;;3.72;90.10
16255;BME280;8235;52.198;9.904;2023-01-31T01:54:55;101246.72;;;3.71;90.95
16255;BME280;8235;52.198;9.904;2023-01-31T01:57:26;101247.66;;;3.69;90.45
16255;BME280;8235;52.198;9.904;2023-01-31T01:59:59;101237.16;;;3.67;90.82
16255;BME280;8235;52.198;9.904;2023-01-31T02:02:28;101242.41;;;3.69;90.83
16255;BME280;8235;52.198;9.904;2023-01-31T02:04:59;101252.97;;;3.67;91.04
16255;BME280;8235;52.198;9.904;2023-01-31T02:07:28;101255.59;;;3.67;90.66
16255;BME280;8235;52.198;9.904;2023-01-31T02:09:59;101257.38;;;3.67;91.20
16255;BME280;8235;52.198;9.904;2023-01-31T02:12:27;101262.66;;;3.67;91.29
16255;BME280;8235;52.198;9.904;2023-01-31T02:14:54;101264.34;;;3.69;90.83
16255;BME280;8235;52.198;9.904;2023-01-31T02:17:20;101256.44;;;3.69;91.34
16255;BME280;8235;52.198;9.904;2023-01-31T02:19:58;101267.84;;;3.70;91.25
16255;BME280;8235;52.198;9.904;2023-01-31T02:22:30;101264.34;;;3.69;90.82
16255;BME280;8235;52.198;9.904;2023-01-31T02:25:31;101279.28;;;3.69;90.49
16255;BME280;8235;52.198;9.904;2023-01-31T02:28:29;101270.50;;;3.68;90.80
16255;BME280;8235;52.198;9.904;2023-01-31T02:34:24;101259.09;;;3.68;90.34
16255;BME280;8235;52.198;9.904;2023-01-31T02:37:04;101272.28;;;3.68;90.00
16255;BME280;8235;52.198;9.904;2023-01-31T02:39:40;101263.50;;;3.67;90.69
16255;BME280;8235;52.198;9.904;2023-01-31T02:42:14;101267.91;;;3.67;90.51
16255;BME280;8235;52.198;9.904;2023-01-31T02:44:49;101271.44;;;3.66;90.46
16255;BME280;8235;52.198;9.904;2023-01-31T02:47:48;101286.34;;;3.67;90.96
16255;BME280;8235;52.198;9.904;2023-01-31T02:50:22;101281.91;;;3.69;90.86
16255;BME280;8235;52.198;9.904;2023-01-31T02:52:54;101292.44;;;3.69;91.09
16255;BME280;8235;52.198;9.904;2023-01-31T02:55:26;101279.25;;;3.70;91.13
16255;BME280;8235;52.198;9.904;2023-01-31T02:58:13;101280.13;;;3.71;90.83
16255;BME280;8235;52.198;9.904;2023-01-31T03:00:43;101281.00;;;3.70;90.66
16255;BME280;8235;52.198;9.904;2023-01-31T03:03:17;101276.69;;;3.67;91.66
16255;BME280;8235;52.198;9.904;2023-01-31T03:08:56;101277.59;;;3.66;92.02
16255;BME280;8235;52.198;9.904;2023-01-31T03:11:33;101277.63;;;3.65;91.65
16255;BME280;8235;52.198;9.904;2023-01-31T03:14:09;101274.16;;;3.63;91.93
16255;BME280;8235;52.198;9.904;2023-01-31T03:16:44;101270.66;;;3.62;92.91
16255;BME280;8235;52.198;9.904;2023-01-31T03:19:35;101267.97;;;3.64;92.48
16255;BME280;8235;52.198;9.904;2023-01-31T03:22:06;101263.63;;;3.63;93.04
16255;BME280;8235;52.198;9.904;2023-01-31T03:24:38;101254.84;;;3.62;92.74
16255;BME280;8235;52.198;9.904;2023-01-31T03:27:05;101267.97;;;3.64;93.32
16255;BME280;8235;52.198;9.904;2023-01-31T03:29:34;101265.38;;;3.62;93.70
16255;BME280;8235;52.198;9.904;2023-01-31T03:32:05;101253.91;;;3.65;93.38
16255;BME280;8235;52.198;9.904;2023-01-31T03:34:33;101257.44;;;3.64;93.91
16255;BME280;8235;52.198;9.904;2023-01-31T03:37:07;101248.72;;;3.62;93.58
16255;BME280;8235;52.198;9.904;2023-01-31T03:39:41;101258.31;;;3.64;93.52
16255;BME280;8235;52.198;9.904;2023-01-31T03:42:13;101248.66;;;3.65;94.02
16255;BME280;8235;52.198;9.904;2023-01-31T03:44:45;101248.66;;;3.65;93.75
16255;BME280;8235;52.198;9.904;2023-01-31T03:47:18;101253.00;;;3.66;93.27
16255;BME280;8235;52.198;9.904;2023-01-31T03:49:49;101238.09;;;3.65;94.06
16255;BME280;8235;52.198;9.904;2023-01-31T03:52:19;101247.75;;;3.66;94.17
16255;BME280;8235;52.198;9.904;2023-01-31T03:54:52;101245.94;;;3.68;93.43
16255;BME280;8235;52.198;9.904;2023-01-31T03:57:23;101234.53;;;3.67;93.49
16255;BME280;8235;52.198;9.904;2023-01-31T03:59:52;101245.03;;;3.69;93.94
16255;BME280;8235;52.198;9.904;2023-01-31T04:02:24;101251.22;;;3.68;93.65
16255;BME280;8235;52.198;9.904;2023-01-31T04:04:54;101253.00;;;3.66;93.24
16255;BME280;8235;52.198;9.904;2023-01-31T04:07:24;101241.59;;;3.65;93.41
16255;BME280;8235;52.198;9.904;2023-01-31T04:09:51;101246.09;;;3.62;93.17
16255;BME280;8235;52.198;9.904;2023-01-31T04:12:18;101246.97;;;3.61;92.70
16255;BME280;8235;52.198;9.904;2023-01-31T04:14:44;101239.19;;;3.58;92.90
16255;BME280;8235;52.198;9.904;2023-01-31T04:17:11;101248.03;;;3.55;92.24
16255;BME280;8235;52.198;9.904;2023-01-31T04:19:37;101241.06;;;3.53;92.56
16255;BME280;8235;52.198;9.904;2023-01-31T04:22:04;101234.09;;;3.50;91.95
16255;BME280;8235;52.198;9.904;2023-01-31T04:24:30;101243.75;;;3.49;91.72
16255;BME280;8235;52.198;9.904;2023-01-31T04:26:58;101241.19;;;3.46;92.15
16255;BME280;8235;52.198;9.904;2023-01-31T04:29:25;101233.41;;;3.42;92.01
16255;BME280;8235;52.198;9.904;2023-01-31T04:31:51;101240.41;;;3.43;91.81
16255;BME280;8235;52.198;9.904;2023-01-31T04:34:18;101247.53;;;3.39;92.31
16255;BME280;8235;52.198;9.904;2023-01-31T04:36:44;101241.47;;;3.36;91.92
16255;BME280;8235;52.198;9.904;2023-01-31T04:39:11;101240.69;;;3.32;92.72
16255;BME280;8235;52.198;9.904;2023-01-31T04:41:37;101257.38;;;3.31;92.39
16255;BME280;8235;52.198;9.904;2023-01-31T04:44:05;101253.88;;;3.31;91.90
16255;BME280;8235;52.198;9.904;2023-01-31T04:46:32;101243.34;;;3.31;92.11
16255;BME280;8235;52.198;9.904;2023-01-31T04:48:59;101251.28;;;3.29;92.11
16255;BME280;8235;52.198;9.904;2023-01-31T04:51:25;101252.19;;;3.28;92.21
16255;BME280;8235;52.198;9.904;2023-01-31T04:53:55;101246.91;;;3.28;92.40
16255;BME280;8235;52.198;9.904;2023-01-31T04:56:21;101250.44;;;3.27;92.95
16255;BME280;8235;52.198;9.904;2023-01-31T04:58:48;101256.56;;;3.28;92.22
16255;BME280;8235;52.198;9.904;2023-01-31T05:01:15;101244.28;;;3.28;92.67
16255;BME280;8235;52.198;9.904;2023-01-31T05:03:42;101250.47;;;3.26;92.40
16255;BME280;8235;52.198;9.904;2023-01-31T05:06:09;101251.34;;;3.26;92.85
16255;BME280;8235;52.198;9.904;2023-01-31T05:08:35;101260.19;;;3.24;92.63
16255;BME280;8235;52.198;9.904;2023-01-31T05:11:03;101264.56;;;3.23;92.20
16255;BME280;8235;52.198;9.904;2023-01-31T05:13:31;101262.88;;;3.22;91.73
16255;BME280;8235;52.198;9.904;2023-01-31T05:15:58;101263.78;;;3.21;91.98
16255;BME280;8235;52.198;9.904;2023-01-31T05:18:26;101260.34;;;3.18;92.25
16255;BME280;8235;52.198;9.904;2023-01-31T05:20:52;101257.72;;;3.18;91.88
16255;BME280;8235;52.198;9.904;2023-01-31T05:23:19;101251.56;;;3.17;91.55
16255;BME280;8235;52.198;9.904;2023-01-31T05:25:48;101264.75;;;3.17;92.47
16255;BME280;8235;52.198;9.904;2023-01-31T05:28:15;101264.72;;;3.19;91.72
16255;BME280;8235;52.198;9.904;2023-01-31T05:30:44;101262.97;;;3.18;91.98
16255;BME280;8235;52.198;9.904;2023-01-31T05:33:11;101260.31;;;3.19;91.61
16255;BME280;8235;52.198;9.904;2023-01-31T05:35:39;101262.09;;;3.17;92.21
16255;BME280;8235;52.198;9.904;2023-01-31T05:38:06;101260.31;;;3.19;91.78
16255;BME280;8235;52.198;9.904;2023-01-31T05:40:33;101248.88;;;3.20;91.61
16255;BME280;8235;52.198;9.904;2023-01-31T05:42:59;101255.94;;;3.18;91.83
16255;BME280;8235;52.198;9.904;2023-01-31T05:45:26;101243.63;;;3.20;92.56
16255;BME280;8235;52.198;9.904;2023-01-31T05:47:53;101254.16;;;3.20;92.14
16255;BME280;8235;52.198;9.904;2023-01-31T05:50:20;101247.97;;;3.21;92.57
16255;BME280;8235;52.198;9.904;2023-01-31T05:52:52;101247.97;;;3.21;91.67
16255;BME280;8235;52.198;9.904;2023-01-31T05:55:19;101260.34;;;3.18;91.90
16255;BME280;8235;52.198;9.904;2023-01-31T05:57:45;101247.19;;;3.18;92.27
16255;BME280;8235;52.198;9.904;2023-01-31T06:00:13;101246.31;;;3.17;92.65
16255;BME280;8235;52.198;9.904;2023-01-31T06:02:40;101242.78;;;3.18;92.17
16255;BME280;8235;52.198;9.904;2023-01-31T06:05:08;101240.97;;;3.20;92.29
16255;BME280;8235;52.198;9.904;2023-01-31T06:07:35;101236.56;;;3.22;93.08
16255;BME280;8235;52.198;9.904;2023-01-31T06:10:04;101237.34;;;3.24;93.04
16255;BME280;8235;52.198;9.904;2023-01-31T06:12:32;101232.09;;;3.24;93.08
16255;BME280;8235;52.198;9.904;2023-01-31T06:14:59;101230.28;;;3.26;92.90
16255;BME280;8235;52.198;9.904;2023-01-31T06:17:25;101231.22;;;3.24;93.05
16255;BME280;8235;52.198;9.904;2023-01-31T06:19:52;101221.53;;;3.26;93.04
16255;BME280;8235;52.198;9.904;2023-01-31T06:22:18;101228.50;;;3.28;92.57
16255;BME280;8235;52.198;9.904;2023-01-31T06:24:45;101231.19;;;3.25;92.75
16255;BME280;8235;52.198;9.904;2023-01-31T06:27:13;101225.03;;;3.26;93.29
16255;BME280;8235;52.198;9.904;2023-01-31T06:29:39;101234.66;;;3.27;92.98
16255;BME280;8235;52.198;9.904;2023-01-31T06:32:05;101225.81;;;3.30;92.85
16255;BME280;8235;52.198;9.904;2023-01-31T06:34:32;101228.50;;;3.28;92.92
16255;BME280;8235;52.198;9.904;2023-01-31T06:36:58;101230.28;;;3.26;93.63
16255;BME280;8235;52.198;9.904;2023-01-31T06:39:25;101223.16;;;3.31;93.42
16255;BME280;8235;52.198;9.904;2023-01-31T06:41:51;101213.50;;;3.32;92.81
16255;BME280;8235;52.198;9.904;2023-01-31T06:44:19;101222.28;;;3.31;92.82
16255;BME280;8235;52.198;9.904;2023-01-31T06:46:46;101215.22;;;3.33;93.19
16255;BME280;8235;52.198;9.904;2023-01-31T06:49:12;101224.84;;;3.34;92.85
16255;BME280;8235;52.198;9.904;2023-01-31T06:51:39;101214.25;;;3.37;92.80
16255;BME280;8235;52.198;9.904;2023-01-31T06:54:05;101213.34;;;3.38;92.63
16255;BME280;8235;52.198;9.904;2023-01-31T06:56:32;101199.28;;;3.39;92.47
16255;BME280;8235;52.198;9.904;2023-01-31T06:58:58;101203.56;;;3.41;92.98
16255;BME280;8235;52.198;9.904;2023-01-31T07:01:26;101200.88;;;3.44;92.23
16255;BME280;8235;52.198;9.904;2023-01-31T07:03:52;101198.25;;;3.44;92.22
16255;BME280;8235;52.198;9.904;2023-01-31T07:06:19;101192.06;;;3.45;92.80
16255;BME280;8235;52.198;9.904;2023-01-31T07:08:46;101197.31;;;3.47;92.84
16255;BME280;8235;52.198;9.904;2023-01-31T07:11:13;101191.16;;;3.46;92.94
16255;BME280;8235;52.198;9.904;2023-01-31T07:13:39;101182.25;;;3.52;92.38
16255;BME280;8235;52.198;9.904;2023-01-31T07:16:06;101188.34;;;3.54;92.88
16255;BME280;8235;52.198;9.904;2023-01-31T07:18:34;101177.78;;;3.56;92.95
16255;BME280;8235;52.198;9.904;2023-01-31T07:21:00;101179.47;;;3.58;92.47
16255;BME280;8235;52.198;9.904;2023-01-31T07:23:27;101167.06;;;3.62;92.94
16255;BME280;8235;52.198;9.904;2023-01-31T07:25:53;101163.50;;;3.64;93.06
16255;BME280;8235;52.198;9.904;2023-01-31T07:28:20;101158.06;;;3.70;93.25
16255;BME280;8235;52.198;9.904;2023-01-31T07:30:46;101148.34;;;3.72;92.78
16255;BME280;8235;52.198;9.904;2023-01-31T07:33:13;101135.19;;;3.72;92.46
16255;BME280;8235;52.198;9.904;2023-01-31T07:35:42;101132.47;;;3.75;93.27
16255;BME280;8235;52.198;9.904;2023-01-31T07:38:08;101138.50;;;3.79;92.97
16255;BME280;8235;52.198;9.904;2023-01-31T07:40:35;101123.56;;;3.79;93.24
16255;BME280;8235;52.198;9.904;2023-01-31T07:43:01;101112.06;;;3.82;93.50
16255;BME280;8235;52.198;9.904;2023-01-31T07:45:28;101116.44;;;3.83;93.37
16255;BME280;8235;52.198;9.904;2023-01-31T07:47:56;101113.75;;;3.84;93.28
16255;BME280;8235;52.198;9.904;2023-01-31T07:50:23;101106.69;;;3.87;92.63
16255;BME280;8235;52.198;9.904;2023-01-31T07:52:52;101109.19;;;3.91;92.89
16255;BME280;8235;52.198;9.904;2023-01-31T07:55:21;101102.16;;;3.92;92.64
16255;BME280;8235;52.198;9.904;2023-01-31T07:57:47;101101.25;;;3.93;92.82
16255;BME280;8235;52.198;9.904;2023-01-31T08:00:14;101096.75;;;3.95;93.05
16255;BME280;8235;52.198;9.904;2023-01-31T08:03:22;101094.09;;;3.96;93.14
16255;BME280;8235;52.198;9.904;2023-01-31T08:05:57;101101.88;;;4.01;92.85
16255;BME280;8235;52.198;9.904;2023-01-31T08:08:25;101097.38;;;4.04;93.08
16255;BME280;8235;52.198;9.904;2023-01-31T08:10:52;101101.66;;;4.08;92.47
16255;BME280;8235;52.198;9.904;2023-01-31T08:13:18;101115.53;;;4.13;92.61
16255;BME280;8235;52.198;9.904;2023-01-31T08:15:46;101104.09;;;4.14;92.48
16255;BME280;8235;52.198;9.904;2023-01-31T08:18:14;101107.53;;;4.16;92.08
16255;BME280;8235;52.198;9.904;2023-01-31T08:20:40;101104.81;;;4.19;92.24
16255;BME280;8235;52.198;9.904;2023-01-31T08:23:06;101095.09;;;4.22;91.83
16255;BME280;8235;52.198;9.904;2023-01-31T08:25:34;101089.78;;;4.23;91.77
16255;BME280;8235;52.198;9.904;2023-01-31T08:28:02;101076.56;;;4.25;91.53
16255;BME280;8235;52.198;9.904;2023-01-31T08:30:28;101065.88;;;4.29;91.84
16255;BME280;8235;52.198;9.904;2023-01-31T08:32:55;101063.94;;;4.34;91.23
16255;BME280;8235;52.198;9.904;2023-01-31T08:35:23;101054.13;;;4.39;91.18
16255;BME280;8235;52.198;9.904;2023-01-31T08:37:50;101041.66;;;4.44;90.71
16255;BME280;8235;52.198;9.904;2023-01-31T08:40:17;101030.16;;;4.47;90.62
16255;BME280;8235;52.198;9.904;2023-01-31T08:42:52;101038.81;;;4.50;90.04
16255;BME280;8235;52.198;9.904;2023-01-31T08:45:19;101052.75;;;4.54;90.06
16255;BME280;8235;52.198;9.904;2023-01-31T08:47:45;101034.22;;;4.57;90.08
16255;BME280;8235;52.198;9.904;2023-01-31T08:50:12;101030.56;;;4.61;89.33
16255;BME280;8235;52.198;9.904;2023-01-31T08:52:38;101019.25;;;4.58;88.51
16255;BME280;8235;52.198;9.904;2023-01-31T08:55:05;101036.66;;;4.63;88.89
16255;BME280;8235;52.198;9.904;2023-01-31T08:57:33;101036.53;;;4.66;88.46
16255;BME280;8235;52.198;9.904;2023-01-31T09:00:01;101024.16;;;4.68;88.03
16255;BME280;8235;52.198;9.904;2023-01-31T09:02:28;101024.06;;;4.71;88.08
16255;BME280;8235;52.198;9.904;2023-01-31T09:04:59;101017.78;;;4.75;87.90
16255;BME280;8235;52.198;9.904;2023-01-31T09:07:28;101012.44;;;4.77;87.58
16255;BME280;8235;52.198;9.904;2023-01-31T09:09:56;101011.50;;;4.79;87.38
16255;BME280;8235;52.198;9.904;2023-01-31T09:12:28;101010.53;;;4.82;87.29
16255;BME280;8235;52.198;9.904;2023-01-31T09:14:57;100998.09;;;4.84;87.28
16255;BME280;8235;52.198;9.904;2023-01-31T09:17:26;100998.88;;;4.87;87.38
16255;BME280;8235;52.198;9.904;2023-01-31T09:19:55;101003.19;;;4.90;87.28
16255;BME280;8235;52.198;9.904;2023-01-31T09:22:22;101004.00;;;4.92;86.89
16255;BME280;8235;52.198;9.904;2023-01-31T09:24:48;100990.00;;;4.90;86.55
16255;BME280;8235;52.198;9.904;2023-01-31T09:27:15;100999.59;;;4.93;86.73
16255;BME280;8235;52.198;9.904;2023-01-31T09:29:41;101013.53;;;4.96;86.14
16255;BME280;8235;52.198;9.904;2023-01-31T09:32:08;101001.25;;;4.95;86.13
16255;BME280;8235;52.198;9.904;2023-01-31T09:34:36;101005.59;;;4.98;85.97
16255;BME280;8235;52.198;9.904;2023-01-31T09:37:02;100998.47;;;5.00;85.83
16255;BME280;8235;52.198;9.904;2023-01-31T09:39:29;100987.06;;;4.99;85.50
16255;BME280;8235;52.198;9.904;2023-01-31T09:41:57;100982.59;;;5.01;85.42
16255;BME280;8235;52.198;9.904;2023-01-31T09:44:28;100983.38;;;5.03;85.41
16255;BME280;8235;52.198;9.904;2023-01-31T09:46:58;100989.56;;;5.02;85.53
16255;BME280;8235;52.198;9.904;2023-01-31T09:49:41;101007.06;;;5.05;85.51
16255;BME280;8235;52.198;9.904;2023-01-31T09:52:12;101001.78;;;5.05;85.88
16255;BME280;8235;52.198;9.904;2023-01-31T09:54:39;101003.56;;;5.04;86.11
16255;BME280;8235;52.198;9.904;2023-01-31T09:57:16;100998.25;;;5.06;86.29
16255;BME280;8235;52.198;9.904;2023-01-31T09:59:49;100993.00;;;5.04;87.04
16255;BME280;8235;52.198;9.904;2023-01-31T10:02:30;100981.72;;;5.01;87.27
16255;BME280;8235;52.198;9.904;2023-01-31T10:05:17;100992.44;;;4.96;88.28
16255;BME280;8235;52.198;9.904;2023-01-31T10:07:56;100975.84;;;4.93;88.65
16255;BME280;8235;52.198;9.904;2023-01-31T10:10:31;100961.88;;;4.89;88.95
16255;BME280;8235;52.198;9.904;2023-01-31T10:13:04;100955.06;;;4.83;89.67
16255;BME280;8235;52.198;9.904;2023-01-31T10:15:41;100949.97;;;4.77;91.20
16255;BME280;8235;52.198;9.904;2023-01-31T10:18:12;100943.09;;;4.73;91.40
16255;BME280;8235;52.198;9.904;2023-01-31T10:20:46;100946.84;;;4.66;91.86
16255;BME280;8235;52.198;9.904;2023-01-31T10:23:18;100928.50;;;4.63;92.62
16255;BME280;8235;52.198;9.904;2023-01-31T10:25:52;100927.78;;;4.58;93.44
16255;BME280;8235;52.198;9.904;2023-01-31T10:28:23;100933.16;;;4.55;93.85
16255;BME280;8235;52.198;9.904;2023-01-31T10:30:56;100934.22;;;4.49;94.62
16255;BME280;8235;52.198;9.904;2023-01-31T10:33:29;100923.03;;;4.43;96.17
16255;BME280;8235;52.198;9.904;2023-01-31T10:36:03;100923.84;;;4.45;96.03
16255;BME280;8235;52.198;9.904;2023-01-31T10:38:33;100930.91;;;4.44;96.65
16255;BME280;8235;52.198;9.904;2023-01-31T10:41:20;100916.84;;;4.44;96.97
16255;BME280;8235;52.198;9.904;2023-01-31T10:43:56;100919.50;;;4.44;97.16
16255;BME280;8235;52.198;9.904;2023-01-31T10:46:24;100927.41;;;4.44;96.70
16255;BME280;8235;52.198;9.904;2023-01-31T10:48:51;100924.72;;;4.45;97.48
16255;BME280;8235;52.198;9.904;2023-01-31T10:51:29;100902.63;;;4.48;97.65
16255;BME280;8235;52.198;9.904;2023-01-31T10:54:10;100891.28;;;4.46;97.47
16255;BME280;8235;52.198;9.904;2023-01-31T10:56:41;100882.47;;;4.47;97.68
16255;BME280;8235;52.198;9.904;2023-01-31T10:59:12;100878.09;;;4.46;97.63
16255;BME280;8235;52.198;9.904;2023-01-31T11:01:41;100872.78;;;4.47;97.30
16255;BME280;8235;52.198;9.904;2023-01-31T11:04:23;100850.63;;;4.51;97.11
16255;BME280;8235;52.198;9.904;2023-01-31T11:06:52;100851.53;;;4.50;97.08
16255;BME280;8235;52.198;9.904;2023-01-31T11:09:19;100839.88;;;4.58;96.83
16255;BME280;8235;52.198;9.904;2023-01-31T11:11:55;100843.38;;;4.58;96.97
16255;BME280;8235;52.198;9.904;2023-01-31T11:14:22;100818.63;;;4.62;96.62
16255;BME280;8235;52.198;9.904;2023-01-31T11:16:49;100809.66;;;4.66;96.56
16255;BME280;8235;52.198;9.904;2023-01-31T11:19:28;100831.63;;;4.67;96.74
16255;BME280;8235;52.198;9.904;2023-01-31T11:21:59;100826.28;;;4.68;96.68
16255;BME280;8235;52.198;9.904;2023-01-31T11:24:29;100821.78;;;4.72;96.24
16255;BME280;8235;52.198;9.904;2023-01-31T11:26:59;100830.44;;;4.75;96.76
16255;BME280;8235;52.198;9.904;2023-01-31T11:29:29;100823.28;;;4.79;96.25
16255;BME280;8235;52.198;9.904;2023-01-31T11:31:57;100804.69;;;4.82;96.14
16255;BME280;8235;52.198;9.904;2023-01-31T11:34:26;100807.13;;;4.86;95.93
16255;BME280;8235;52.198;9.904;2023-01-31T11:37:02;100814.94;;;4.89;95.95
16255;BME280;8235;52.198;9.904;2023-01-31T11:39:31;100811.34;;;4.92;95.64
16255;BME280;8235;52.198;9.904;2023-01-31T11:42:04;100811.34;;;4.92;95.75
16255;BME280;8235;52.198;9.904;2023-01-31T11:44:31;100801.59;;;4.94;95.43
16255;BME280;8235;52.198;9.904;2023-01-31T11:47:01;100806.00;;;4.94;95.63
16255;BME280;8235;52.198;9.904;2023-01-31T11:49:31;100786.72;;;4.92;95.79
16255;BME280;8235;52.198;9.904;2023-01-31T11:52:02;100783.00;;;4.97;95.85
16255;BME280;8235;52.198;9.904;2023-01-31T11:54:40;100797.00;;;4.99;95.97
16255;BME280;8235;52.198;9.904;2023-01-31T11:57:13;100794.31;;;5.01;95.54
16255;BME280;8235;52.198;9.904;2023-01-31T11:59:40;100789.94;;;5.00;95.54
16255;BME280;8235;52.198;9.904;2023-01-31T12:02:26;100782.09;;;4.98;95.80
16255;BME280;8235;52.198;9.904;2023-01-31T12:04:59;100779.50;;;4.97;96.44
16255;BME280;8235;52.198;9.904;2023-01-31T12:07:31;100775.03;;;4.99;96.34
16255;BME280;8235;52.198;9.904;2023-01-31T12:10:33;100776.75;;;5.00;96.66
16255;BME280;8235;52.198;9.904;2023-01-31T12:16:05;100754.78;;;4.99;96.87
16255;BME280;8235;52.198;9.904;2023-01-31T12:18:46;100745.09;;;5.00;96.87
16255;BME280;8235;52.198;9.904;2023-01-31T12:21:19;100751.28;;;4.99;96.92
16255;BME280;8235;52.198;9.904;2023-01-31T12:24:23;100743.41;;;4.97;96.80
16255;BME280;8235;52.198;9.904;2023-01-31T12:26:58;100738.09;;;4.99;96.92
16255;BME280;8235;52.198;9.904;2023-01-31T12:32:44;100711.69;;;4.99;97.06
16255;BME280;8235;52.198;9.904;2023-01-31T12:35:27;100728.13;;;5.05;97.20
16255;BME280;8235;52.198;9.904;2023-01-31T12:38:07;100729.78;;;5.08;96.82
16255;BME280;8235;52.198;9.904;2023-01-31T12:40:44;100728.13;;;5.05;97.34
16255;BME280;8235;52.198;9.904;2023-01-31T12:43:24;100737.81;;;5.05;97.39
16255;BME280;8235;52.198;9.904;2023-01-31T12:46:05;100736.84;;;5.07;96.88
16255;BME280;8235;52.198;9.904;2023-01-31T12:48:46;100751.81;;;5.07;97.11
16255;BME280;8235;52.198;9.904;2023-01-31T12:51:28;100756.28;;;5.05;97.08
16255;BME280;8235;52.198;9.904;2023-01-31T12:54:07;100740.34;;;5.08;96.87
16255;BME280;8235;52.198;9.904;2023-01-31T12:56:53;100752.63;;;5.09;96.95
16255;BME280;8235;52.198;9.904;2023-01-31T12:59:35;100741.22;;;5.08;97.10
16255;BME280;8235;52.198;9.904;2023-01-31T13:02:15;100737.69;;;5.08;97.26
16255;BME280;8235;52.198;9.904;2023-01-31T13:04:47;100741.25;;;5.07;97.27
16255;BME280;8235;52.198;9.904;2023-01-31T13:07:19;100736.84;;;5.07;97.06
16255;BME280;8235;52.198;9.904;2023-01-31T13:09:51;100746.44;;;5.10;97.41
16255;BME280;8235;52.198;9.904;2023-01-31T13:12:24;100742.00;;;5.10;97.16
16255;BME280;8235;52.198;9.904;2023-01-31T13:15:02;100743.78;;;5.10;97.26
16255;BME280;8235;52.198;9.904;2023-01-31T13:17:31;100740.34;;;5.08;97.62
16255;BME280;8235;52.198;9.904;2023-01-31T13:20:02;100745.63;;;5.08;98.13
16255;BME280;8235;52.198;9.904;2023-01-31T13:22:38;100736.91;;;5.06;99.48
16255;BME280;8235;52.198;9.904;2023-01-31T13:25:15;100742.13;;;5.07;99.08
16255;BME280;8235;52.198;9.904;2023-01-31T13:27:49;100744.72;;;5.09;99.15
16255;BME280;8235;52.198;9.904;2023-01-31T13:30:22;100735.13;;;5.06;99.52
16255;BME280;8235;52.198;9.904;2023-01-31T13:32:51;100736.16;;;5.02;100.00
16255;BME280;8235;52.198;9.904;2023-01-31T13:35:23;100741.44;;;5.02;100.00
16255;BME280;8235;52.198;9.904;2023-01-31T13:37:55;100735.19;;;5.05;100.00
16255;BME280;8235;52.198;9.904;2023-01-31T13:40:27;100733.41;;;5.05;100.00